sensor_id;sensor_type;location;lat;lon;timestamp;temperature;humidity
61351;DHT22;47119;49.130;9.218;2023-03-23T00:01:19;13.22;68.64
61351;DHT22;47119;49.130;9.218;2023-03-23T00:03:48;13.25;68.16
61351;DHT22;47119;49.130;9.218;2023-03-23T00:06:18;13.23;68.46
61351;DHT22;47119;49.130;9.218;2023-03-23T00:08:50;13.23;68.37
61351;DHT22;47119;49.130;9.218;2023-03-23T00:11:25;13.23;68.40
61351;DHT22;47119;49.130;9.218;2023-03-23T00:13:55;13.23;68.14
61351;DHT22;47119;49.130;9.218;2023-03-23T00:16:27;13.25;67.93
61351;DHT22;47119;49.130;9.218;2023-03-23T00:18:59;13.23;67.52
61351;DHT22;47119;49.130;9.218;2023-03-23T00:21:31;13.20;68.27
61351;DHT22;47119;49.130;9.218;2023-03-23T00:24:00;13.26;67.57
61351;DHT22;47119;49.130;9.218;2023-03-23T00:26:33;13.23;67.41
61351;DHT22;47119;49.130;9.218;2023-03-23T00:29:01;13.22;67.72
61351;DHT22;47119;49.130;9.218;2023-03-23T00:31:30;13.25;67.63
61351;DHT22;47119;49.130;9.218;2023-03-23T00:33:58;13.23;67.53
61351;DHT22;47119;49.130;9.218;2023-03-23T00:36:30;13.23;67.99
61351;DHT22;47119;49.130;9.218;2023-03-23T00:39:00;13.23;67.45
61351;DHT22;47119;49.130;9.218;2023-03-23T00:41:27;13.25;67.96
61351;DHT22;47119;49.130;9.218;2023-03-23T00:43:59;13.22;67.69
61351;DHT22;47119;49.130;9.218;2023-03-23T00:46:29;13.25;67.84
61351;DHT22;47119;49.130;9.218;2023-03-23T00:48:56;13.23;67.78
61351;DHT22;47119;49.130;9.218;2023-03-23T00:51:25;13.25;67.75
61351;DHT22;47119;49.130;9.218;2023-03-23T00:53:53;13.25;67.77
61351;DHT22;47119;49.130;9.218;2023-03-23T00:56:23;13.23;67.91
61351;DHT22;47119;49.130;9.218;2023-03-23T00:58:51;13.23;67.42
61351;DHT22;47119;49.130;9.218;2023-03-23T01:01:20;13.25;67.73
61351;DHT22;47119;49.130;9.218;2023-03-23T01:03:50;13.23;67.41
61351;DHT22;47119;49.130;9.218;2023-03-23T01:06:20;13.23;67.95
61351;DHT22;47119;49.130;9.218;2023-03-23T01:08:47;13.26;67.55
61351;DHT22;47119;49.130;9.218;2023-03-23T01:11:15;13.23;68.09
61351;DHT22;47119;49.130;9.218;2023-03-23T01:13:42;13.25;68.05
61351;DHT22;47119;49.130;9.218;2023-03-23T01:16:13;13.26;67.68
61351;DHT22;47119;49.130;9.218;2023-03-23T01:18:40;13.27;67.82
61351;DHT22;47119;49.130;9.218;2023-03-23T01:21:10;13.23;68.02
61351;DHT22;47119;49.130;9.218;2023-03-23T01:23:39;13.25;67.80
61351;DHT22;47119;49.130;9.218;2023-03-23T01:26:06;13.27;67.34
61351;DHT22;47119;49.130;9.218;2023-03-23T01:28:35;13.25;67.52
61351;DHT22;47119;49.130;9.218;2023-03-23T01:31:03;13.27;67.44
61351;DHT22;47119;49.130;9.218;2023-03-23T01:33:35;13.26;67.69
61351;DHT22;47119;49.130;9.218;2023-03-23T01:36:02;13.27;67.85
61351;DHT22;47119;49.130;9.218;2023-03-23T01:38:31;13.26;67.27
61351;DHT22;47119;49.130;9.218;2023-03-23T01:40:59;13.26;67.48
61351;DHT22;47119;49.130;9.218;2023-03-23T01:43:26;13.26;67.34
61351;DHT22;47119;49.130;9.218;2023-03-23T01:45:54;13.27;67.59
61351;DHT22;47119;49.130;9.218;2023-03-23T01:48:27;13.27;67.21
61351;DHT22;47119;49.130;9.218;2023-03-23T01:50:57;13.26;67.55
61351;DHT22;47119;49.130;9.218;2023-03-23T01:53:30;13.30;67.32
61351;DHT22;47119;49.130;9.218;2023-03-23T01:56:01;13.27;67.42
61351;DHT22;47119;49.130;9.218;2023-03-23T01:58:33;13.27;67.52
61351;DHT22;47119;49.130;9.218;2023-03-23T02:01:05;13.29;67.53
61351;DHT22;47119;49.130;9.218;2023-03-23T02:03:41;13.27;67.26
61351;DHT22;47119;49.130;9.218;2023-03-23T02:06:12;13.32;67.29
61351;DHT22;47119;49.130;9.218;2023-03-23T02:09:05;13.27;67.41
61351;DHT22;47119;49.130;9.218;2023-03-23T02:11:34;13.30;67.48
61351;DHT22;47119;49.130;9.218;2023-03-23T02:14:01;13.30;67.50
61351;DHT22;47119;49.130;9.218;2023-03-23T02:16:33;13.27;67.47
61351;DHT22;47119;49.130;9.218;2023-03-23T02:22:05;13.29;67.20
61351;DHT22;47119;49.130;9.218;2023-03-23T02:24:57;13.30;67.05
61351;DHT22;47119;49.130;9.218;2023-03-23T02:27:33;13.30;67.34
61351;DHT22;47119;49.130;9.218;2023-03-23T02:30:15;13.30;67.08
61351;DHT22;47119;49.130;9.218;2023-03-23T02:36:10;13.30;67.47
61351;DHT22;47119;49.130;9.218;2023-03-23T02:38:46;13.29;67.33
61351;DHT22;47119;49.130;9.218;2023-03-23T02:41:22;13.27;67.39
61351;DHT22;47119;49.130;9.218;2023-03-23T02:43:54;13.29;67.32
61351;DHT22;47119;49.130;9.218;2023-03-23T02:46:23;13.29;67.50
61351;DHT22;47119;49.130;9.218;2023-03-23T02:48:55;13.30;67.18
61351;DHT22;47119;49.130;9.218;2023-03-23T02:51:25;13.32;67.22
61351;DHT22;47119;49.130;9.218;2023-03-23T02:53:53;13.30;67.44
61351;DHT22;47119;49.130;9.218;2023-03-23T02:56:22;13.32;67.02
61351;DHT22;47119;49.130;9.218;2023-03-23T02:58:54;13.33;67.27
61351;DHT22;47119;49.130;9.218;2023-03-23T03:04:26;13.36;67.07
61351;DHT22;47119;49.130;9.218;2023-03-23T03:07:00;13.35;67.39
61351;DHT22;47119;49.130;9.218;2023-03-23T03:09:37;13.35;66.86
61351;DHT22;47119;49.130;9.218;2023-03-23T03:12:10;13.33;66.79
61351;DHT22;47119;49.130;9.218;2023-03-23T03:14:44;13.32;67.07
61351;DHT22;47119;49.130;9.218;2023-03-23T03:17:20;13.36;67.05
61351;DHT22;47119;49.130;9.218;2023-03-23T03:19:52;13.36;67.36
61351;DHT22;47119;49.130;9.218;2023-03-23T03:22:27;13.33;67.25
61351;DHT22;47119;49.130;9.218;2023-03-23T03:24:58;13.33;66.97
61351;DHT22;47119;49.130;9.218;2023-03-23T03:27:27;13.33;67.00
61351;DHT22;47119;49.130;9.218;2023-03-23T03:30:08;13.35;66.83
61351;DHT22;47119;49.130;9.218;2023-03-23T03:32:43;13.36;66.66
61351;DHT22;47119;49.130;9.218;2023-03-23T03:35:15;13.35;67.17
61351;DHT22;47119;49.130;9.218;2023-03-23T03:37:43;13.36;66.73
61351;DHT22;47119;49.130;9.218;2023-03-23T03:40:12;13.35;66.85
61351;DHT22;47119;49.130;9.218;2023-03-23T03:42:43;13.33;66.96
61351;DHT22;47119;49.130;9.218;2023-03-23T03:45:11;13.35;66.76
61351;DHT22;47119;49.130;9.218;2023-03-23T03:47:40;13.32;66.97
61351;DHT22;47119;49.130;9.218;2023-03-23T03:50:10;13.36;66.71
61351;DHT22;47119;49.130;9.218;2023-03-23T03:52:39;13.35;66.76
61351;DHT22;47119;49.130;9.218;2023-03-23T03:55:07;13.33;66.83
61351;DHT22;47119;49.130;9.218;2023-03-23T03:57:37;13.35;66.68
61351;DHT22;47119;49.130;9.218;2023-03-23T04:00:23;13.32;67.28
61351;DHT22;47119;49.130;9.218;2023-03-23T04:02:50;13.36;66.70
61351;DHT22;47119;49.130;9.218;2023-03-23T04:05:38;13.36;66.95
61351;DHT22;47119;49.130;9.218;2023-03-23T04:08:08;13.33;66.84
61351;DHT22;47119;49.130;9.218;2023-03-23T04:10:36;13.30;66.85
61351;DHT22;47119;49.130;9.218;2023-03-23T04:13:06;13.33;66.85
61351;DHT22;47119;49.130;9.218;2023-03-23T04:15:33;13.35;66.91
61351;DHT22;47119;49.130;9.218;2023-03-23T04:18:00;13.35;67.07
61351;DHT22;47119;49.130;9.218;2023-03-23T04:20:28;13.35;67.05
61351;DHT22;47119;49.130;9.218;2023-03-23T04:22:55;13.35;66.94
61351;DHT22;47119;49.130;9.218;2023-03-23T04:25:25;13.35;67.23
61351;DHT22;47119;49.130;9.218;2023-03-23T04:27:54;13.33;67.40
61351;DHT22;47119;49.130;9.218;2023-03-23T04:30:26;13.36;66.90
61351;DHT22;47119;49.130;9.218;2023-03-23T04:33:11;13.38;67.04
61351;DHT22;47119;49.130;9.218;2023-03-23T04:35:42;13.36;67.26
61351;DHT22;47119;49.130;9.218;2023-03-23T04:38:29;13.38;66.87
61351;DHT22;47119;49.130;9.218;2023-03-23T04:41:04;13.36;67.01
61351;DHT22;47119;49.130;9.218;2023-03-23T04:43:39;13.38;67.10
61351;DHT22;47119;49.130;9.218;2023-03-23T04:46:25;13.35;67.19
61351;DHT22;47119;49.130;9.218;2023-03-23T04:48:55;13.38;67.07
61351;DHT22;47119;49.130;9.218;2023-03-23T04:51:28;13.36;67.01
61351;DHT22;47119;49.130;9.218;2023-03-23T04:54:01;13.36;67.17
61351;DHT22;47119;49.130;9.218;2023-03-23T04:56:35;13.35;67.59
61351;DHT22;47119;49.130;9.218;2023-03-23T04:59:09;13.36;67.03
61351;DHT22;47119;49.130;9.218;2023-03-23T05:01:43;13.36;67.40
61351;DHT22;47119;49.130;9.218;2023-03-23T05:04:16;13.38;67.32
61351;DHT22;47119;49.130;9.218;2023-03-23T05:06:55;13.36;67.28
61351;DHT22;47119;49.130;9.218;2023-03-23T05:09:26;13.38;67.20
61351;DHT22;47119;49.130;9.218;2023-03-23T05:11:55;13.36;67.54
61351;DHT22;47119;49.130;9.218;2023-03-23T05:14:23;13.36;67.26
61351;DHT22;47119;49.130;9.218;2023-03-23T05:17:03;13.36;67.75
61351;DHT22;47119;49.130;9.218;2023-03-23T05:19:29;13.38;67.32
61351;DHT22;47119;49.130;9.218;2023-03-23T05:22:00;13.40;67.31
61351;DHT22;47119;49.130;9.218;2023-03-23T05:24:30;13.39;66.88
61351;DHT22;47119;49.130;9.218;2023-03-23T05:27:05;13.38;66.91
61351;DHT22;47119;49.130;9.218;2023-03-23T05:29:34;13.38;67.23
61351;DHT22;47119;49.130;9.218;2023-03-23T05:32:02;13.36;67.32
61351;DHT22;47119;49.130;9.218;2023-03-23T05:34:33;13.35;67.34
61351;DHT22;47119;49.130;9.218;2023-03-23T05:37:02;13.39;67.46
61351;DHT22;47119;49.130;9.218;2023-03-23T05:39:42;13.35;67.35
61351;DHT22;47119;49.130;9.218;2023-03-23T05:42:31;13.36;67.28
61351;DHT22;47119;49.130;9.218;2023-03-23T05:45:06;13.36;67.32
61351;DHT22;47119;49.130;9.218;2023-03-23T05:47:36;13.33;67.48
61351;DHT22;47119;49.130;9.218;2023-03-23T05:50:08;13.36;67.49
61351;DHT22;47119;49.130;9.218;2023-03-23T05:52:36;13.38;67.59
61351;DHT22;47119;49.130;9.218;2023-03-23T05:55:07;13.39;67.73
61351;DHT22;47119;49.130;9.218;2023-03-23T05:57:38;13.36;67.61
61351;DHT22;47119;49.130;9.218;2023-03-23T06:00:13;13.36;67.78
61351;DHT22;47119;49.130;9.218;2023-03-23T06:02:49;13.36;67.75
61351;DHT22;47119;49.130;9.218;2023-03-23T06:05:26;13.38;68.02
61351;DHT22;47119;49.130;9.218;2023-03-23T06:07:54;13.38;67.94
61351;DHT22;47119;49.130;9.218;2023-03-23T06:10:21;13.39;67.96
61351;DHT22;47119;49.130;9.218;2023-03-23T06:12:57;13.36;68.01
61351;DHT22;47119;49.130;9.218;2023-03-23T06:15:34;13.38;68.11
61351;DHT22;47119;49.130;9.218;2023-03-23T06:18:04;13.39;68.05
61351;DHT22;47119;49.130;9.218;2023-03-23T06:20:41;13.38;68.21
61351;DHT22;47119;49.130;9.218;2023-03-23T06:23:32;13.38;68.07
61351;DHT22;47119;49.130;9.218;2023-03-23T06:26:02;13.38;68.36
61351;DHT22;47119;49.130;9.218;2023-03-23T06:28:33;13.39;68.38
61351;DHT22;47119;49.130;9.218;2023-03-23T06:31:01;13.35;68.14
61351;DHT22;47119;49.130;9.218;2023-03-23T06:33:31;13.36;68.26
61351;DHT22;47119;49.130;9.218;2023-03-23T06:36:18;13.35;68.24
61351;DHT22;47119;49.130;9.218;2023-03-23T06:39:04;13.38;68.69
61351;DHT22;47119;49.130;9.218;2023-03-23T06:41:47;13.39;68.47
61351;DHT22;47119;49.130;9.218;2023-03-23T06:44:15;13.39;68.59
61351;DHT22;47119;49.130;9.218;2023-03-23T06:46:42;13.39;68.51
61351;DHT22;47119;49.130;9.218;2023-03-23T06:49:32;13.40;68.64
61351;DHT22;47119;49.130;9.218;2023-03-23T06:52:12;13.42;68.79
61351;DHT22;47119;49.130;9.218;2023-03-23T06:54:41;13.42;68.92
61351;DHT22;47119;49.130;9.218;2023-03-23T06:57:10;13.43;68.86
61351;DHT22;47119;49.130;9.218;2023-03-23T06:59:38;13.40;68.99
61351;DHT22;47119;49.130;9.218;2023-03-23T07:02:08;13.40;69.03
61351;DHT22;47119;49.130;9.218;2023-03-23T07:04:40;13.42;68.92
61351;DHT22;47119;49.130;9.218;2023-03-23T07:07:13;13.42;68.98
61351;DHT22;47119;49.130;9.218;2023-03-23T07:30:08;13.42;69.43
61351;DHT22;47119;49.130;9.218;2023-03-23T07:32:38;13.40;69.50
61351;DHT22;47119;49.130;9.218;2023-03-23T07:35:06;13.44;69.38
61351;DHT22;47119;49.130;9.218;2023-03-23T07:37:55;13.46;69.50
61351;DHT22;47119;49.130;9.218;2023-03-23T07:40:22;13.40;69.58
61351;DHT22;47119;49.130;9.218;2023-03-23T07:43:07;13.42;69.62
61351;DHT22;47119;49.130;9.218;2023-03-23T07:45:59;13.40;69.62
61351;DHT22;47119;49.130;9.218;2023-03-23T07:48:35;13.43;69.75
61351;DHT22;47119;49.130;9.218;2023-03-23T07:51:03;13.42;69.88
61351;DHT22;47119;49.130;9.218;2023-03-23T07:53:37;13.39;69.82
61351;DHT22;47119;49.130;9.218;2023-03-23T07:56:24;13.40;69.82
61351;DHT22;47119;49.130;9.218;2023-03-23T07:58:58;13.40;69.94
61351;DHT22;47119;49.130;9.218;2023-03-23T08:01:30;13.38;70.04
61351;DHT22;47119;49.130;9.218;2023-03-23T08:04:17;13.39;70.19
61351;DHT22;47119;49.130;9.218;2023-03-23T08:07:05;13.39;70.30
61351;DHT22;47119;49.130;9.218;2023-03-23T08:09:48;13.40;70.29
61351;DHT22;47119;49.130;9.218;2023-03-23T08:12:27;13.40;70.67
61351;DHT22;47119;49.130;9.218;2023-03-23T08:15:19;13.40;70.42
61351;DHT22;47119;49.130;9.218;2023-03-23T08:18:07;13.43;70.54
61351;DHT22;47119;49.130;9.218;2023-03-23T08:20:53;13.40;70.60
61351;DHT22;47119;49.130;9.218;2023-03-23T08:23:26;13.40;70.47
61351;DHT22;47119;49.130;9.218;2023-03-23T08:26:02;13.46;70.52
61351;DHT22;47119;49.130;9.218;2023-03-23T08:28:52;13.46;70.89
61351;DHT22;47119;49.130;9.218;2023-03-23T08:31:38;13.46;70.84
61351;DHT22;47119;49.130;9.218;2023-03-23T08:34:32;13.47;70.66
61351;DHT22;47119;49.130;9.218;2023-03-23T08:37:40;13.46;70.84
61351;DHT22;47119;49.130;9.218;2023-03-23T08:40:35;13.43;70.92
61351;DHT22;47119;49.130;9.218;2023-03-23T08:43:21;13.44;71.14
61351;DHT22;47119;49.130;9.218;2023-03-23T08:53:19;13.46;71.32
61351;DHT22;47119;49.130;9.218;2023-03-23T08:56:12;13.47;71.53
61351;DHT22;47119;49.130;9.218;2023-03-23T08:58:59;13.47;71.68
61351;DHT22;47119;49.130;9.218;2023-03-23T09:01:47;13.47;71.40
61351;DHT22;47119;49.130;9.218;2023-03-23T09:04:35;13.44;71.75
61351;DHT22;47119;49.130;9.218;2023-03-23T09:07:29;13.47;71.74
61351;DHT22;47119;49.130;9.218;2023-03-23T09:09:57;13.47;71.65
61351;DHT22;47119;49.130;9.218;2023-03-23T09:12:26;13.50;71.56
61351;DHT22;47119;49.130;9.218;2023-03-23T09:14:55;13.47;71.61
61351;DHT22;47119;49.130;9.218;2023-03-23T09:17:25;13.50;71.71
61351;DHT22;47119;49.130;9.218;2023-03-23T09:19:52;13.47;71.49
61351;DHT22;47119;49.130;9.218;2023-03-23T09:22:19;13.46;71.46
61351;DHT22;47119;49.130;9.218;2023-03-23T09:24:50;13.46;71.81
61351;DHT22;47119;49.130;9.218;2023-03-23T09:27:19;13.49;71.72
61351;DHT22;47119;49.130;9.218;2023-03-23T09:29:46;13.47;71.79
61351;DHT22;47119;49.130;9.218;2023-03-23T09:32:14;13.46;71.87
61351;DHT22;47119;49.130;9.218;2023-03-23T09:34:41;13.44;71.70
61351;DHT22;47119;49.130;9.218;2023-03-23T11:46:05;13.56;74.33
61351;DHT22;47119;49.130;9.218;2023-03-23T12:20:24;13.57;74.15
61351;DHT22;47119;49.130;9.218;2023-03-23T13:26:29;13.57;74.13
61351;DHT22;47119;49.130;9.218;2023-03-23T13:33:21;13.59;74.03
61351;DHT22;47119;49.130;9.218;2023-03-23T18:53:30;13.67;74.49
61351;DHT22;47119;49.130;9.218;2023-03-23T18:56:04;13.70;74.34
61351;DHT22;47119;49.130;9.218;2023-03-23T18:58:33;13.66;73.95
61351;DHT22;47119;49.130;9.218;2023-03-23T19:01:01;13.66;73.97
61351;DHT22;47119;49.130;9.218;2023-03-23T19:03:29;13.67;73.76
